Time;durP1;ratioP1;P1;durP2;ratioP2;P2;SDS_P1;SDS_P2;PMS_P1;PMS_P2;Temp;Humidity;BMP_temperature;BMP_pressure;BME280_temperature;BME280_humidity;BME280_pressure;Samples;Min_cycle;Max_cycle;Signal;HPM_P1;HPM_P2
2023/04/20 00:00:31;;;;;;;20.15;11.90;;;;;;;;;;5082302;28;20117;-51
2023/04/20 00:02:57;;;;;;;19.00;11.07;;;;;;;;;;5082019;28;20028;-53
2023/04/20 00:05:22;;;;;;;22.52;12.00;;;;;;;;;;5082064;28;20028;-53
2023/04/20 00:07:48;;;;;;;20.38;11.23;;;;;;;;;;5082117;28;20453;-52
2023/04/20 00:10:13;;;;;;;21.88;11.70;;;;;;;;;;5081817;28;20024;-52
2023/04/20 00:12:40;;;;;;;20.50;11.73;;;;;;;;;;5080641;28;20471;-48
2023/04/20 00:15:06;;;;;;;17.55;10.35;;;;;;;;;;5081616;28;20361;-52
2023/04/20 00:17:31;;;;;;;20.33;10.73;;;;;;;;;;5081931;28;20039;-52
2023/04/20 00:19:56;;;;;;;20.48;11.25;;;;;;;;;;5081772;28;20063;-52
2023/04/20 00:22:22;;;;;;;15.63;11.00;;;;;;;;;;5081503;28;20369;-52
2023/04/20 00:24:47;;;;;;;17.40;10.35;;;;;;;;;;5081701;28;20528;-51
2023/04/20 00:27:12;;;;;;;18.20;10.77;;;;;;;;;;5081999;28;20272;-49
2023/04/20 00:29:37;;;;;;;17.33;10.73;;;;;;;;;;5081745;28;20035;-52
2023/04/20 00:32:03;;;;;;;19.17;10.50;;;;;;;;;;5081806;28;20016;-49
2023/04/20 00:34:28;;;;;;;15.38;9.32;;;;;;;;;;5081554;28;20028;-49
2023/04/20 00:36:53;;;;;;;23.60;9.50;;;;;;;;;;5081165;28;20073;-51
2023/04/20 00:39:19;;;;;;;16.58;9.57;;;;;;;;;;5081203;28;20452;-49
2023/04/20 00:41:44;;;;;;;19.60;10.38;;;;;;;;;;5061900;28;20035;-49
2023/04/20 00:44:12;;;;;;;17.48;9.15;;;;;;;;;;5081175;28;20419;-50
2023/04/20 00:46:38;;;;;;;17.17;9.37;;;;;;;;;;5079867;28;20077;-49
2023/04/20 00:49:03;;;;;;;18.42;9.48;;;;;;;;;;5081486;28;20012;-49
2023/04/20 00:51:30;;;;;;;16.33;9.93;;;;;;;;;;5081426;28;20020;-50
2023/04/20 00:53:56;;;;;;;14.25;8.38;;;;;;;;;;5081160;28;20035;-53
2023/04/20 00:56:21;;;;;;;16.67;10.02;;;;;;;;;;5081162;28;20028;-54
2023/04/20 00:58:47;;;;;;;15.90;9.57;;;;;;;;;;5081296;28;20096;-52
2023/04/20 01:01:16;;;;;;;20.23;9.35;;;;;;;;;;5079885;28;20463;-50
2023/04/20 01:03:42;;;;;;;18.65;9.52;;;;;;;;;;5080920;28;20024;-50
2023/04/20 01:06:07;;;;;;;15.77;8.93;;;;;;;;;;5081699;28;20039;-50
2023/04/20 01:08:33;;;;;;;15.68;9.27;;;;;;;;;;5080491;28;20079;-49
2023/04/20 01:10:58;;;;;;;18.98;9.45;;;;;;;;;;5081042;28;20016;-50
2023/04/20 01:13:23;;;;;;;16.00;9.93;;;;;;;;;;5081240;28;20345;-49
2023/04/20 01:15:49;;;;;;;16.05;9.48;;;;;;;;;;5080974;28;20451;-49
2023/04/20 01:18:16;;;;;;;17.98;9.63;;;;;;;;;;5080881;28;20020;-49
2023/04/20 01:20:42;;;;;;;15.98;8.55;;;;;;;;;;5079391;28;20447;-50
2023/04/20 01:23:07;;;;;;;16.45;9.05;;;;;;;;;;5080900;28;20016;-50
2023/04/20 01:25:33;;;;;;;18.00;9.57;;;;;;;;;;5080569;28;20027;-51
2023/04/20 01:27:58;;;;;;;16.85;9.27;;;;;;;;;;5080491;28;20640;-53
2023/04/20 01:30:23;;;;;;;18.27;9.10;;;;;;;;;;5080750;28;20024;-53
2023/04/20 01:32:49;;;;;;;16.13;8.65;;;;;;;;;;5081057;28;20103;-51
2023/04/20 01:35:15;;;;;;;15.85;8.98;;;;;;;;;;5080616;28;20022;-53
2023/04/20 01:37:40;;;;;;;17.52;8.90;;;;;;;;;;5080655;28;20044;-53
2023/04/20 01:40:09;;;;;;;16.63;9.52;;;;;;;;;;5080474;28;20596;-53
2023/04/20 01:42:34;;;;;;;13.88;8.30;;;;;;;;;;5080571;28;20016;-51
2023/04/20 01:45:00;;;;;;;14.27;8.52;;;;;;;;;;5081205;28;20086;-48
2023/04/20 01:47:25;;;;;;;13.10;8.30;;;;;;;;;;5080809;28;20024;-50
2023/04/20 01:49:50;;;;;;;17.05;8.90;;;;;;;;;;5080621;28;20077;-54
2023/04/20 01:52:16;;;;;;;14.88;8.48;;;;;;;;;;5080153;28;20055;-50
2023/04/20 01:54:41;;;;;;;13.98;8.95;;;;;;;;;;5080596;28;20379;-50
2023/04/20 01:57:06;;;;;;;19.63;8.40;;;;;;;;;;5080445;28;20020;-53
2023/04/20 01:59:32;;;;;;;17.58;8.82;;;;;;;;;;5080487;28;20528;-52
2023/04/20 02:01:57;;;;;;;17.27;9.77;;;;;;;;;;5080657;28;20020;-49
2023/04/20 02:04:23;;;;;;;17.00;9.18;;;;;;;;;;5080580;28;20213;-50
2023/04/20 02:06:48;;;;;;;14.98;9.05;;;;;;;;;;5080853;28;20119;-51
2023/04/20 02:09:14;;;;;;;16.10;9.43;;;;;;;;;;5080367;28;20020;-50
2023/04/20 02:11:39;;;;;;;20.27;8.68;;;;;;;;;;5080464;28;20028;-49
2023/04/20 02:14:05;;;;;;;16.70;9.15;;;;;;;;;;5080261;28;20118;-52
2023/04/20 02:16:30;;;;;;;17.27;8.48;;;;;;;;;;5080771;28;20024;-50
2023/04/20 02:18:55;;;;;;;16.67;9.77;;;;;;;;;;5080480;28;20381;-51
2023/04/20 02:21:21;;;;;;;17.13;8.73;;;;;;;;;;5080510;28;20028;-51
2023/04/20 02:23:46;;;;;;;15.93;9.05;;;;;;;;;;5057106;28;20128;-50
2023/04/20 02:26:11;;;;;;;18.88;9.27;;;;;;;;;;5057321;28;20606;-50
2023/04/20 02:28:37;;;;;;;15.23;9.52;;;;;;;;;;5057211;28;20036;-51
2023/04/20 02:31:02;;;;;;;16.80;9.52;;;;;;;;;;5057224;28;20032;-51
2023/04/20 02:33:27;;;;;;;16.95;8.98;;;;;;;;;;5057237;28;20321;-54
2023/04/20 02:35:52;;;;;;;17.23;8.63;;;;;;;;;;5056768;28;20021;-55
2023/04/20 02:38:18;;;;;;;20.02;9.13;;;;;;;;;;5057348;28;20443;-50
2023/04/20 02:40:43;;;;;;;17.77;9.70;;;;;;;;;;5060827;28;20021;-51
2023/04/20 02:43:09;;;;;;;19.38;9.38;;;;;;;;;;5060645;28;20399;-52
2023/04/20 02:45:34;;;;;;;15.68;9.07;;;;;;;;;;5060539;28;20037;-50
2023/04/20 02:47:59;;;;;;;18.60;9.40;;;;;;;;;;5043994;28;20106;-52
2023/04/20 02:50:25;;;;;;;16.10;9.45;;;;;;;;;;5060489;28;20037;-48
2023/04/20 02:52:50;;;;;;;14.57;8.88;;;;;;;;;;5060722;28;20528;-48
2023/04/20 02:55:16;;;;;;;14.93;8.43;;;;;;;;;;5076480;28;20032;-49
2023/04/20 02:57:41;;;;;;;15.35;8.75;;;;;;;;;;5083397;28;20046;-49
2023/04/20 03:00:08;;;;;;;16.48;9.90;;;;;;;;;;5083210;28;20358;-51
2023/04/20 03:02:33;;;;;;;15.32;9.73;;;;;;;;;;5040129;28;20099;-51
2023/04/20 03:04:58;;;;;;;22.20;9.88;;;;;;;;;;5040417;28;20041;-51
2023/04/20 03:07:24;;;;;;;12.40;8.23;;;;;;;;;;5040066;28;20155;-50
2023/04/20 03:09:49;;;;;;;15.13;8.75;;;;;;;;;;5040561;28;20024;-49
2023/04/20 03:12:14;;;;;;;14.70;9.07;;;;;;;;;;5040074;28;20488;-51
2023/04/20 03:14:40;;;;;;;15.23;8.88;;;;;;;;;;5040217;28;20117;-50
2023/04/20 03:17:05;;;;;;;15.98;9.23;;;;;;;;;;5040161;28;20061;-47
2023/04/20 03:19:31;;;;;;;21.42;9.00;;;;;;;;;;5023326;28;20029;-49
2023/04/20 03:21:56;;;;;;;21.48;9.38;;;;;;;;;;5040140;28;20029;-49
2023/04/20 03:24:22;;;;;;;17.02;9.77;;;;;;;;;;5039840;28;20392;-51
2023/04/20 03:26:48;;;;;;;14.88;10.13;;;;;;;;;;5039960;28;20033;-53
2023/04/20 03:29:13;;;;;;;19.42;9.95;;;;;;;;;;5023132;28;20500;-51
2023/04/20 03:31:38;;;;;;;24.08;14.13;;;;;;;;;;5040054;28;20460;-52
2023/04/20 03:34:03;;;;;;;26.35;22.02;;;;;;;;;;5070214;28;20036;-48
2023/04/20 03:36:29;;;;;;;28.02;24.92;;;;;;;;;;5082252;28;20031;-49
2023/04/20 03:38:54;;;;;;;29.55;25.92;;;;;;;;;;5082801;28;20448;-51
2023/04/20 03:41:19;;;;;;;82.68;74.18;;;;;;;;;;5082771;28;20078;-51
2023/04/20 03:43:45;;;;;;;131.32;96.00;;;;;;;;;;5082339;28;20034;-48
2023/04/20 03:46:10;;;;;;;140.35;92.55;;;;;;;;;;5082774;28;20103;-51
2023/04/20 03:48:35;;;;;;;179.43;109.68;;;;;;;;;;5082554;28;20024;-48
2023/04/20 03:51:01;;;;;;;149.05;99.72;;;;;;;;;;5082109;28;20031;-53
2023/04/20 03:53:27;;;;;;;237.02;118.70;;;;;;;;;;5080971;28;20016;-52
2023/04/20 03:55:53;;;;;;;197.68;113.05;;;;;;;;;;5082326;28;20020;-49
2023/04/20 03:58:18;;;;;;;224.50;117.47;;;;;;;;;;5081291;28;20027;-50
2023/04/20 04:00:43;;;;;;;260.80;125.70;;;;;;;;;;5082345;28;20456;-48
2023/04/20 04:03:09;;;;;;;254.15;122.50;;;;;;;;;;5082371;28;20059;-49
2023/04/20 04:05:34;;;;;;;278.52;125.10;;;;;;;;;;5081986;28;20035;-51
2023/04/20 04:07:59;;;;;;;273.33;118.55;;;;;;;;;;5082260;28;20153;-53
2023/04/20 04:10:25;;;;;;;276.65;125.97;;;;;;;;;;5082048;28;20145;-52
2023/04/20 04:12:50;;;;;;;289.70;126.00;;;;;;;;;;5082243;28;20028;-55
2023/04/20 04:15:18;;;;;;;300.40;127.80;;;;;;;;;;5080657;28;20050;-49
2023/04/20 04:17:43;;;;;;;316.52;116.20;;;;;;;;;;5082079;28;20365;-49
2023/04/20 04:20:09;;;;;;;323.48;120.22;;;;;;;;;;5081923;28;20356;-49
2023/04/20 04:22:34;;;;;;;330.08;130.75;;;;;;;;;;5081741;28;20444;-51
2023/04/20 04:24:59;;;;;;;327.83;130.63;;;;;;;;;;5080398;28;20059;-50
2023/04/20 04:27:28;;;;;;;334.85;131.93;;;;;;;;;;5081694;28;20020;-52
2023/04/20 04:29:54;;;;;;;351.13;135.63;;;;;;;;;;5080668;28;20020;-50
2023/04/20 04:32:19;;;;;;;354.67;136.23;;;;;;;;;;5081892;28;20039;-50
2023/04/20 04:34:44;;;;;;;369.27;139.35;;;;;;;;;;5081454;28;20023;-49
2023/04/20 04:37:10;;;;;;;375.45;140.30;;;;;;;;;;5081147;28;20046;-55
2023/04/20 04:39:36;;;;;;;369.08;138.20;;;;;;;;;;5081500;28;20356;-52
2023/04/20 04:42:02;;;;;;;386.58;140.98;;;;;;;;;;5080272;28;20073;-49
2023/04/20 04:44:27;;;;;;;383.58;145.05;;;;;;;;;;5081805;28;20563;-50
2023/04/20 04:46:53;;;;;;;406.38;138.40;;;;;;;;;;5081648;28;20274;-53
2023/04/20 04:49:19;;;;;;;406.42;153.80;;;;;;;;;;5081228;28;20020;-52
2023/04/20 04:51:46;;;;;;;399.70;156.65;;;;;;;;;;5095977;28;20373;-51
2023/04/20 04:54:11;;;;;;;418.52;148.40;;;;;;;;;;5080145;28;20768;-53
2023/04/20 04:56:36;;;;;;;423.15;152.00;;;;;;;;;;5081553;28;20431;-54
2023/04/20 04:59:02;;;;;;;439.08;176.27;;;;;;;;;;5081322;28;20020;-51
2023/04/20 05:01:27;;;;;;;427.00;181.20;;;;;;;;;;5080519;28;20022;-53
2023/04/20 05:03:52;;;;;;;441.75;190.73;;;;;;;;;;5081322;28;20459;-48
2023/04/20 05:06:17;;;;;;;418.60;195.70;;;;;;;;;;5081233;28;20055;-50
2023/04/20 05:08:43;;;;;;;426.73;203.57;;;;;;;;;;5081160;28;20506;-52
2023/04/20 05:11:08;;;;;;;392.70;216.75;;;;;;;;;;5079738;28;20016;-52
2023/04/20 05:13:33;;;;;;;336.45;211.32;;;;;;;;;;5081515;28;20293;-53
2023/04/20 05:15:58;;;;;;;371.38;238.93;;;;;;;;;;5081105;28;20076;-55
2023/04/20 05:18:24;;;;;;;408.05;248.73;;;;;;;;;;5081188;28;20024;-49
2023/04/20 05:20:49;;;;;;;414.23;276.98;;;;;;;;;;5078210;28;20028;-50
2023/04/20 05:23:14;;;;;;;436.90;275.38;;;;;;;;;;5079358;28;20032;-52
2023/04/20 05:25:40;;;;;;;399.20;271.27;;;;;;;;;;5085006;28;20101;-54
2023/04/20 05:28:05;;;;;;;393.55;282.50;;;;;;;;;;5066531;28;20115;-51
2023/04/20 05:30:30;;;;;;;393.30;308.40;;;;;;;;;;5085672;28;20024;-53
2023/04/20 05:32:56;;;;;;;356.40;299.35;;;;;;;;;;5084959;28;20051;-53
2023/04/20 05:35:21;;;;;;;373.05;320.50;;;;;;;;;;5084919;28;20030;-54
2023/04/20 05:37:46;;;;;;;377.38;328.08;;;;;;;;;;5085494;28;20220;-54
2023/04/20 05:40:12;;;;;;;385.75;331.27;;;;;;;;;;5085969;28;20020;-53
2023/04/20 05:42:37;;;;;;;372.48;335.75;;;;;;;;;;5085827;28;20016;-51
2023/04/20 05:45:03;;;;;;;398.42;358.35;;;;;;;;;;5085997;28;20031;-54
2023/04/20 05:47:29;;;;;;;374.88;340.95;;;;;;;;;;5085532;28;20073;-52
2023/04/20 05:49:54;;;;;;;405.48;366.92;;;;;;;;;;5085661;28;20016;-53
2023/04/20 05:52:19;;;;;;;401.48;364.40;;;;;;;;;;5085351;28;20828;-53
2023/04/20 05:54:45;;;;;;;415.63;376.40;;;;;;;;;;5085549;28;20023;-55
2023/04/20 05:57:10;;;;;;;461.88;412.67;;;;;;;;;;5085780;28;20028;-52
2023/04/20 05:59:36;;;;;;;460.48;414.73;;;;;;;;;;5085703;28;20046;-53
2023/04/20 06:02:01;;;;;;;489.50;432.13;;;;;;;;;;5075389;28;20036;-55
2023/04/20 06:04:27;;;;;;;492.73;444.33;;;;;;;;;;5080557;28;20112;-56
2023/04/20 06:06:52;;;;;;;672.00;408.40;;;;;;;;;;5084250;28;20024;-54
2023/04/20 06:09:17;;;;;;;696.97;394.92;;;;;;;;;;5076915;28;20024;-55
2023/04/20 06:11:42;;;;;;;799.03;408.38;;;;;;;;;;5084090;28;20028;-55
2023/04/20 06:14:10;;;;;;;435.83;213.20;;;;;;;;;;5080523;28;20028;-51
2023/04/20 06:16:36;;;;;;;777.13;407.88;;;;;;;;;;5081190;28;20021;-57
2023/04/20 06:19:01;;;;;;;794.22;419.33;;;;;;;;;;5080945;28;20039;-52
2023/04/20 06:21:26;;;;;;;784.85;416.70;;;;;;;;;;5090322;28;20024;-55
2023/04/20 06:23:52;;;;;;;759.55;425.73;;;;;;;;;;5089752;28;20032;-54
2023/04/20 06:26:17;;;;;;;731.17;450.67;;;;;;;;;;5081792;28;20036;-55
2023/04/20 06:28:42;;;;;;;730.40;437.40;;;;;;;;;;5086869;28;20023;-55
2023/04/20 06:31:08;;;;;;;744.20;435.63;;;;;;;;;;5077229;28;20059;-55
2023/04/20 06:33:33;;;;;;;763.25;433.35;;;;;;;;;;5071320;28;20115;-55
2023/04/20 06:35:58;;;;;;;739.90;437.13;;;;;;;;;;5085456;28;20027;-52
2023/04/20 06:38:24;;;;;;;767.17;442.05;;;;;;;;;;5082757;28;20352;-56
2023/04/20 06:40:49;;;;;;;697.60;430.88;;;;;;;;;;5087536;28;20022;-53
2023/04/20 06:43:15;;;;;;;15.20;7.78;;;;;;;;;;5090908;28;20028;-54
2023/04/20 06:45:40;;;;;;;17.73;6.47;;;;;;;;;;5073186;28;20145;-56
2023/04/20 06:48:05;;;;;;;16.73;7.20;;;;;;;;;;5083909;28;20506;-60
2023/04/20 06:50:31;;;;;;;11.50;7.00;;;;;;;;;;5087845;28;20024;-59
2023/04/20 06:52:56;;;;;;;14.55;7.35;;;;;;;;;;5084616;28;20380;-56
2023/04/20 06:55:21;;;;;;;12.70;7.45;;;;;;;;;;5084605;28;20404;-60
2023/04/20 06:57:47;;;;;;;21.07;18.37;;;;;;;;;;5102971;28;20028;-61
2023/04/20 07:00:12;;;;;;;11.93;6.88;;;;;;;;;;5088939;28;20264;-58
2023/04/20 07:02:44;;;;;;;9.65;6.03;;;;;;;;;;5089746;28;20374;-57
2023/04/20 07:05:10;;;;;;;34.42;24.30;;;;;;;;;;5087407;28;20035;-58
2023/04/20 07:07:36;;;;;;;12.13;6.38;;;;;;;;;;5087041;28;20040;-60
2023/04/20 07:10:01;;;;;;;11.18;5.90;;;;;;;;;;5069355;28;20372;-58
2023/04/20 07:12:26;;;;;;;14.77;6.80;;;;;;;;;;5087000;28;20024;-61
2023/04/20 07:14:52;;;;;;;8.80;5.87;;;;;;;;;;5087334;28;20255;-57
2023/04/20 07:17:17;;;;;;;12.63;6.10;;;;;;;;;;5088454;28;20252;-58
2023/04/20 07:19:42;;;;;;;15.88;6.80;;;;;;;;;;5087937;28;20475;-55
2023/04/20 07:22:07;;;;;;;10.70;5.78;;;;;;;;;;5088228;28;20028;-60
2023/04/20 07:24:33;;;;;;;11.73;5.63;;;;;;;;;;5085460;28;20059;-56
2023/04/20 07:26:58;;;;;;;9.37;5.47;;;;;;;;;;5073765;28;20032;-55
2023/04/20 07:29:23;;;;;;;8.80;5.73;;;;;;;;;;5078017;28;20997;-54
2023/04/20 07:31:49;;;;;;;11.00;5.93;;;;;;;;;;5088024;28;20592;-55
2023/04/20 07:34:14;;;;;;;9.10;5.22;;;;;;;;;;5091927;28;20031;-56
2023/04/20 07:36:39;;;;;;;9.85;4.88;;;;;;;;;;5087292;28;20720;-56
2023/04/20 07:39:05;;;;;;;9.35;5.28;;;;;;;;;;5076409;28;20054;-56
2023/04/20 07:41:30;;;;;;;11.50;5.72;;;;;;;;;;5079747;28;20483;-56
2023/04/20 07:43:55;;;;;;;15.15;5.63;;;;;;;;;;5074842;28;20483;-52
2023/04/20 07:46:21;;;;;;;15.35;5.47;;;;;;;;;;5076737;28;20055;-57
2023/04/20 07:48:46;;;;;;;9.63;5.80;;;;;;;;;;5083873;28;20020;-56
2023/04/20 07:51:12;;;;;;;11.88;5.45;;;;;;;;;;5081361;28;20545;-54
2023/04/20 07:53:37;;;;;;;14.10;6.10;;;;;;;;;;5087083;28;20383;-52
2023/04/20 07:56:03;;;;;;;10.52;5.85;;;;;;;;;;5084219;28;20593;-55
2023/04/20 07:58:28;;;;;;;9.07;5.47;;;;;;;;;;5087149;28;20463;-54
2023/04/20 08:00:53;;;;;;;19.98;12.35;;;;;;;;;;5074533;28;20361;-56
2023/04/20 08:03:19;;;;;;;10.33;5.03;;;;;;;;;;5070122;28;20072;-53
2023/04/20 08:05:44;;;;;;;11.20;5.70;;;;;;;;;;5082040;28;20276;-54
2023/04/20 08:08:10;;;;;;;75.63;62.50;;;;;;;;;;5079999;28;20048;-51
2023/04/20 08:10:35;;;;;;;13.57;6.50;;;;;;;;;;5077050;28;20048;-52
2023/04/20 08:13:00;;;;;;;14.85;6.40;;;;;;;;;;5075033;28;20272;-55
2023/04/20 08:15:26;;;;;;;9.57;5.40;;;;;;;;;;5079214;28;20145;-52
2023/04/20 08:17:51;;;;;;;11.15;5.35;;;;;;;;;;5075268;28;20277;-47
2023/04/20 08:20:17;;;;;;;10.65;5.53;;;;;;;;;;5083736;28;20319;-52
2023/04/20 08:22:42;;;;;;;9.60;4.65;;;;;;;;;;5078141;28;20493;-56
2023/04/20 08:25:07;;;;;;;10.10;4.50;;;;;;;;;;5079106;28;20035;-61
2023/04/20 08:27:33;;;;;;;14.27;5.15;;;;;;;;;;5078186;28;20943;-62
2023/04/20 08:29:58;;;;;;;11.40;5.47;;;;;;;;;;5086955;28;20077;-61
2023/04/20 08:32:25;;;;;;;14.57;4.90;;;;;;;;;;5086200;28;20475;-60
2023/04/20 08:34:50;;;;;;;13.77;4.90;;;;;;;;;;5078663;28;20253;-58
2023/04/20 08:37:16;;;;;;;16.17;5.78;;;;;;;;;;5085797;28;20528;-60
2023/04/20 08:39:41;;;;;;;19.70;6.13;;;;;;;;;;5079782;28;20020;-62
2023/04/20 08:42:06;;;;;;;15.63;5.18;;;;;;;;;;5080125;28;20799;-61
2023/04/20 08:44:32;;;;;;;11.40;5.25;;;;;;;;;;5078601;28;20037;-58
2023/04/20 08:46:58;;;;;;;12.38;4.72;;;;;;;;;;5078475;28;20077;-60
2023/04/20 08:49:25;;;;;;;9.63;4.35;;;;;;;;;;5069473;28;20024;-60
2023/04/20 08:51:51;;;;;;;11.90;5.03;;;;;;;;;;5091897;28;20031;-58
2023/04/20 08:54:16;;;;;;;9.75;4.80;;;;;;;;;;5080773;28;20399;-60
2023/04/20 08:56:43;;;;;;;16.00;5.07;;;;;;;;;;5078397;28;20017;-60
2023/04/20 08:59:09;;;;;;;11.77;4.93;;;;;;;;;;5067868;28;20024;-60
2023/04/20 09:01:38;;;;;;;12.98;4.72;;;;;;;;;;5083520;28;20540;-60
2023/04/20 09:04:14;;;;;;;17.48;6.03;;;;;;;;;;5084834;28;20027;-63
2023/04/20 09:06:42;;;;;;;11.18;4.40;;;;;;;;;;5086586;28;20036;-61
2023/04/20 09:09:09;;;;;;;12.67;6.17;;;;;;;;;;5079311;28;20045;-61
2023/04/20 09:11:34;;;;;;;9.90;4.15;;;;;;;;;;5085944;28;20042;-60
2023/04/20 09:14:00;;;;;;;6.07;3.90;;;;;;;;;;5085577;28;20535;-59
2023/04/20 09:16:26;;;;;;;11.43;4.25;;;;;;;;;;5085721;28;20024;-60
2023/04/20 09:18:52;;;;;;;9.45;3.83;;;;;;;;;;5086379;28;20103;-59
2023/04/20 09:21:17;;;;;;;5.40;3.58;;;;;;;;;;5085712;28;20495;-59
2023/04/20 09:23:43;;;;;;;6.10;3.40;;;;;;;;;;5084613;28;20016;-59
2023/04/20 09:26:16;;;;;;;9.30;3.83;;;;;;;;;;5084524;28;20027;-54
2023/04/20 09:28:41;;;;;;;44.47;33.58;;;;;;;;;;5100455;28;20786;-58
2023/04/20 09:31:16;;;;;;;16.73;4.23;;;;;;;;;;5088671;28;20012;-59
2023/04/20 09:33:41;;;;;;;7.00;3.00;;;;;;;;;;5086265;28;20298;-56
2023/04/20 09:36:06;;;;;;;5.83;3.07;;;;;;;;;;5085677;28;20395;-58
2023/04/20 09:38:32;;;;;;;10.52;3.88;;;;;;;;;;5085824;28;20262;-59
2023/04/20 09:41:00;;;;;;;5.10;3.07;;;;;;;;;;5085435;28;20047;-60
2023/04/20 09:43:26;;;;;;;8.02;3.35;;;;;;;;;;5089086;28;20630;-60
2023/04/20 09:45:53;;;;;;;6.55;3.25;;;;;;;;;;5086069;28;20034;-60
2023/04/20 09:48:20;;;;;;;5.18;3.35;;;;;;;;;;5091573;28;20073;-60
2023/04/20 09:50:45;;;;;;;7.28;3.08;;;;;;;;;;5090645;28;20039;-59
2023/04/20 09:53:11;;;;;;;4.40;2.85;;;;;;;;;;5090495;28;20052;-58
2023/04/20 09:55:37;;;;;;;5.78;3.25;;;;;;;;;;5094833;28;20466;-61
2023/04/20 09:58:03;;;;;;;4.78;3.33;;;;;;;;;;5090903;28;20019;-60
2023/04/20 10:00:29;;;;;;;75.30;60.08;;;;;;;;;;5096337;28;20073;-61
2023/04/20 10:02:54;;;;;;;5.95;3.40;;;;;;;;;;5085619;28;20383;-60
2023/04/20 10:05:31;;;;;;;6.07;2.90;;;;;;;;;;5091180;28;20028;-61
2023/04/20 10:08:00;;;;;;;8.00;3.45;;;;;;;;;;5088223;28;20060;-61
2023/04/20 10:10:26;;;;;;;7.13;3.50;;;;;;;;;;5088440;28;20028;-60
2023/04/20 10:12:52;;;;;;;11.57;3.45;;;;;;;;;;5074215;28;20530;-61
2023/04/20 10:15:18;;;;;;;6.18;3.50;;;;;;;;;;5083912;28;20032;-59
2023/04/20 10:17:43;;;;;;;8.80;4.30;;;;;;;;;;5079671;28;20016;-61
2023/04/20 10:20:22;;;;;;;6.40;3.42;;;;;;;;;;5082631;28;20100;-60
2023/04/20 10:22:49;;;;;;;7.60;3.30;;;;;;;;;;5075966;28;20077;-61
2023/04/20 10:25:19;;;;;;;6.07;3.53;;;;;;;;;;5083180;28;20093;-52
2023/04/20 10:28:11;;;;;;;10.43;3.63;;;;;;;;;;5078113;28;20028;-57
2023/04/20 10:30:37;;;;;;;6.18;3.35;;;;;;;;;;5039312;28;20550;-53
2023/04/20 10:33:06;;;;;;;7.38;3.33;;;;;;;;;;5033744;28;20068;-54
2023/04/20 10:35:48;;;;;;;5.45;3.38;;;;;;;;;;5037542;28;20257;-55
2023/04/20 10:38:13;;;;;;;16.25;4.13;;;;;;;;;;5037929;28;20136;-53
2023/04/20 10:40:39;;;;;;;7.10;3.83;;;;;;;;;;5060198;28;20587;-56
2023/04/20 10:43:16;;;;;;;9.75;3.47;;;;;;;;;;5043954;28;20029;-60
2023/04/20 10:45:41;;;;;;;7.53;3.58;;;;;;;;;;5040712;28;20040;-61
2023/04/20 10:48:09;;;;;;;7.90;3.40;;;;;;;;;;5045909;28;20076;-58
2023/04/20 10:50:35;;;;;;;14.07;3.23;;;;;;;;;;5038694;28;20071;-61
2023/04/20 10:53:01;;;;;;;12.27;3.53;;;;;;;;;;5061759;28;20029;-62
2023/04/20 10:55:26;;;;;;;13.80;3.75;;;;;;;;;;5041606;28;20103;-58
2023/04/20 10:57:51;;;;;;;8.67;3.93;;;;;;;;;;5037863;28;20044;-55
2023/04/20 11:00:19;;;;;;;9.15;3.75;;;;;;;;;;5041083;28;21086;-59
2023/04/20 11:02:51;;;;;;;10.05;3.50;;;;;;;;;;5026246;28;20047;-60
2023/04/20 11:05:20;;;;;;;4.85;3.33;;;;;;;;;;5040302;28;20492;-63
2023/04/20 11:07:46;;;;;;;7.90;3.38;;;;;;;;;;5059823;28;20040;-65
2023/04/20 11:10:11;;;;;;;6.13;3.45;;;;;;;;;;5067425;28;20407;-62
2023/04/20 11:12:39;;;;;;;8.83;3.80;;;;;;;;;;5079164;28;20080;-62
2023/04/20 11:15:05;;;;;;;5.72;3.30;;;;;;;;;;5076153;28;20642;-63
2023/04/20 11:17:31;;;;;;;9.13;3.75;;;;;;;;;;5072598;28;20028;-61
2023/04/20 11:20:11;;;;;;;12.18;3.85;;;;;;;;;;5069888;28;20032;-58
2023/04/20 11:22:38;;;;;;;7.68;3.60;;;;;;;;;;5082188;28;20032;-61
2023/04/20 11:25:07;;;;;;;10.07;3.97;;;;;;;;;;5087654;28;20188;-60
2023/04/20 11:27:32;;;;;;;;;;;;;;;;;;5086874;28;20693;-60
2023/04/20 11:29:58;;;;;;;8.43;3.50;;;;;;;;;;5065773;28;20068;-61
2023/04/20 11:32:24;;;;;;;8.35;4.20;;;;;;;;;;5082788;28;20360;-61
2023/04/20 11:34:57;;;;;;;10.90;4.80;;;;;;;;;;5090308;28;20033;-60
2023/04/20 11:37:22;;;;;;;12.23;5.07;;;;;;;;;;5071876;28;20056;-61
2023/04/20 11:39:57;;;;;;;16.90;7.95;;;;;;;;;;5072268;28;20552;-61
2023/04/20 11:42:22;;;;;;;67.75;47.88;;;;;;;;;;5082630;28;20107;-61
2023/04/20 11:44:48;;;;;;;9.30;3.30;;;;;;;;;;5087409;28;20115;-61
2023/04/20 11:47:13;;;;;;;7.97;3.40;;;;;;;;;;5086361;28;20031;-61
2023/04/20 11:49:39;;;;;;;5.03;3.15;;;;;;;;;;5069268;28;20260;-61
2023/04/20 11:52:04;;;;;;;3.85;2.90;;;;;;;;;;5068116;28;20024;-62
2023/04/20 11:54:32;;;;;;;4.38;2.85;;;;;;;;;;5076275;28;20077;-61
2023/04/20 11:56:58;;;;;;;6.85;3.67;;;;;;;;;;5087647;28;20020;-62
2023/04/20 11:59:24;;;;;;;10.55;3.53;;;;;;;;;;5084989;28;20023;-62
2023/04/20 12:01:49;;;;;;;5.07;3.28;;;;;;;;;;5087326;28;20385;-61
2023/04/20 12:04:14;;;;;;;4.30;2.97;;;;;;;;;;5087448;28;20285;-64
2023/04/20 12:06:40;;;;;;;4.43;3.77;;;;;;;;;;5084080;28;20030;-61
2023/04/20 12:09:06;;;;;;;5.68;3.28;;;;;;;;;;5087226;28;20285;-62
2023/04/20 12:11:31;;;;;;;6.57;3.53;;;;;;;;;;5075200;28;20045;-61
2023/04/20 12:13:57;;;;;;;9.48;3.28;;;;;;;;;;5074712;28;20435;-62
2023/04/20 12:16:23;;;;;;;4.60;3.60;;;;;;;;;;5080196;28;20488;-61
2023/04/20 12:18:49;;;;;;;15.33;4.57;;;;;;;;;;5087023;28;20031;-61
2023/04/20 12:21:14;;;;;;;18.30;6.53;;;;;;;;;;5083679;28;20325;-61
2023/04/20 12:23:39;;;;;;;121.90;113.47;;;;;;;;;;5074624;28;20101;-61
2023/04/20 12:26:05;;;;;;;797.85;606.03;;;;;;;;;;5071631;28;20036;-62
2023/04/20 12:28:30;;;;;;;316.45;257.42;;;;;;;;;;5086952;28;20061;-61
2023/04/20 12:30:56;;;;;;;6.45;3.67;;;;;;;;;;5084640;28;20020;-60
2023/04/20 12:33:21;;;;;;;9.85;3.97;;;;;;;;;;5081400;28;20650;-60
2023/04/20 12:35:46;;;;;;;5.65;3.60;;;;;;;;;;5052232;28;20392;-57
2023/04/20 12:38:11;;;;;;;7.80;3.40;;;;;;;;;;5087678;28;20063;-57
2023/04/20 12:40:37;;;;;;;6.13;3.08;;;;;;;;;;5087047;28;20032;-57
2023/04/20 12:43:02;;;;;;;5.70;2.95;;;;;;;;;;5094803;28;20398;-58
2023/04/20 12:45:28;;;;;;;11.45;3.83;;;;;;;;;;5090622;28;20028;-57
2023/04/20 12:47:53;;;;;;;8.55;3.47;;;;;;;;;;5086063;28;20050;-58
2023/04/20 12:50:18;;;;;;;4.15;2.60;;;;;;;;;;5083796;28;20084;-60
2023/04/20 12:52:43;;;;;;;5.55;2.95;;;;;;;;;;5081312;28;20181;-59
2023/04/20 12:55:10;;;;;;;10.30;3.58;;;;;;;;;;5086949;28;21120;-60
2023/04/20 12:57:35;;;;;;;10.38;3.55;;;;;;;;;;5079938;28;20027;-61
2023/04/20 13:00:04;;;;;;;6.13;3.00;;;;;;;;;;5077263;28;20032;-61
2023/04/20 13:02:30;;;;;;;12.77;4.10;;;;;;;;;;5098093;27;20031;-60
2023/04/20 13:04:55;;;;;;;8.90;3.30;;;;;;;;;;5077774;28;20024;-60
2023/04/20 13:07:21;;;;;;;8.25;3.00;;;;;;;;;;5071515;28;20217;-62
2023/04/20 13:09:46;;;;;;;3.83;2.95;;;;;;;;;;5074147;28;20031;-61
2023/04/20 13:12:11;;;;;;;7.15;3.22;;;;;;;;;;5071445;28;20115;-59
2023/04/20 13:14:37;;;;;;;6.25;2.97;;;;;;;;;;5072430;28;20381;-60
2023/04/20 13:17:05;;;;;;;6.28;3.08;;;;;;;;;;5062863;28;20033;-62
2023/04/20 13:19:30;;;;;;;6.32;3.35;;;;;;;;;;5064452;28;20515;-66
2023/04/20 13:21:56;;;;;;;7.35;3.10;;;;;;;;;;5071253;28;20091;-63
2023/04/20 13:24:21;;;;;;;8.57;3.63;;;;;;;;;;5077654;28;20137;-62
2023/04/20 13:26:46;;;;;;;7.75;2.53;;;;;;;;;;5073623;28;20036;-61
2023/04/20 13:29:12;;;;;;;8.02;3.90;;;;;;;;;;5074198;28;20059;-62
2023/04/20 13:31:39;;;;;;;5.88;2.63;;;;;;;;;;5071213;28;20452;-62
2023/04/20 13:34:04;;;;;;;6.07;2.53;;;;;;;;;;5053053;28;20298;-62
2023/04/20 13:36:30;;;;;;;5.72;2.88;;;;;;;;;;5062205;28;20037;-63
2023/04/20 13:38:56;;;;;;;5.38;2.70;;;;;;;;;;5061657;28;20372;-62
2023/04/20 13:41:24;;;;;;;8.55;3.58;;;;;;;;;;5063363;28;20388;-63
2023/04/20 13:43:50;;;;;;;11.90;4.07;;;;;;;;;;5064717;28;20605;-62
2023/04/20 13:46:15;;;;;;;5.97;2.92;;;;;;;;;;5059644;28;20060;-62
2023/04/20 13:48:40;;;;;;;234.60;218.05;;;;;;;;;;5060592;28;20700;-59
2023/04/20 13:51:06;;;;;;;112.88;105.05;;;;;;;;;;5058097;28;20273;-61
2023/04/20 13:53:31;;;;;;;135.88;126.93;;;;;;;;;;5059848;28;20135;-60
2023/04/20 13:55:57;;;;;;;332.85;309.38;;;;;;;;;;5067393;28;20051;-60
2023/04/20 13:58:22;;;;;;;594.50;551.35;;;;;;;;;;5076821;28;20024;-60
2023/04/20 14:00:47;;;;;;;608.22;563.38;;;;;;;;;;5067071;28;20070;-58
2023/04/20 14:03:14;;;;;;;623.60;577.58;;;;;;;;;;5059296;28;20045;-56
2023/04/20 14:05:39;;;;;;;540.30;502.60;;;;;;;;;;5060498;28;20447;-59
2023/04/20 14:08:05;;;;;;;602.40;558.05;;;;;;;;;;5062579;28;20062;-60
2023/04/20 14:10:31;;;;;;;380.63;356.20;;;;;;;;;;5077682;28;20467;-60
2023/04/20 14:12:57;;;;;;;470.08;436.25;;;;;;;;;;5074747;28;20062;-59
2023/04/20 14:15:22;;;;;;;499.35;464.42;;;;;;;;;;5068347;28;20059;-61